sensor_id;sensor_type;location;lat;lon;timestamp;pressure;altitude;pressure_sealevel;temperature;humidity
33155;BME280;19511;42.682;23.332;2023-03-03T00:01:35;95219.84;;;4.04;100.00
33155;BME280;19511;42.682;23.332;2023-03-03T00:04:01;95179.59;;;3.81;100.00
33155;BME280;19511;42.682;23.332;2023-03-03T00:06:26;95200.56;;;3.97;100.00
33155;BME280;19511;42.682;23.332;2023-03-03T00:08:52;95119.56;;;3.42;100.00
33155;BME280;19511;42.682;23.332;2023-03-03T00:11:17;95144.84;;;3.58;100.00
33155;BME280;19511;42.682;23.332;2023-03-03T00:13:49;95200.56;;;3.97;100.00
33155;BME280;19511;42.682;23.332;2023-03-03T00:16:23;95212.34;;;4.01;100.00
33155;BME280;19511;42.682;23.332;2023-03-03T00:18:50;95203.56;;;3.88;100.00
33155;BME280;19511;42.682;23.332;2023-03-03T00:21:34;95092.56;;;3.17;100.00
33155;BME280;19511;42.682;23.332;2023-03-03T00:24:24;95089.81;;;3.17;100.00
33155;BME280;19511;42.682;23.332;2023-03-03T00:26:55;95111.06;;;3.24;100.00
33155;BME280;19511;42.682;23.332;2023-03-03T00:29:34;95210.09;;;3.83;100.00
33155;BME280;19511;42.682;23.332;2023-03-03T00:34:49;95127.31;;;3.40;100.00
33155;BME280;19511;42.682;23.332;2023-03-03T00:37:35;95200.22;;;3.75;100.00
33155;BME280;19511;42.682;23.332;2023-03-03T00:42:39;95199.00;;;3.72;100.00
33155;BME280;19511;42.682;23.332;2023-03-03T00:45:39;95189.44;;;3.63;100.00
33155;BME280;19511;42.682;23.332;2023-03-03T00:48:29;95184.41;;;3.65;100.00
33155;BME280;19511;42.682;23.332;2023-03-03T00:50:56;95053.81;;;2.88;100.00
33155;BME280;19511;42.682;23.332;2023-03-03T00:53:24;95154.19;;;3.57;100.00
33155;BME280;19511;42.682;23.332;2023-03-03T00:55:51;95172.41;;;3.73;100.00
33155;BME280;19511;42.682;23.332;2023-03-03T00:58:17;95073.38;;;3.14;100.00
33155;BME280;19511;42.682;23.332;2023-03-03T01:00:46;95171.47;;;3.85;100.00
33155;BME280;19511;42.682;23.332;2023-03-03T01:03:15;95151.81;;;3.79;100.00
33155;BME280;19511;42.682;23.332;2023-03-03T01:05:41;95148.13;;;3.95;100.00
33155;BME280;19511;42.682;23.332;2023-03-03T01:08:06;95026.56;;;3.15;100.00
33155;BME280;19511;42.682;23.332;2023-03-03T01:10:35;95159.94;;;3.99;100.00
33155;BME280;19511;42.682;23.332;2023-03-03T01:13:03;95164.88;;;3.89;100.00
33155;BME280;19511;42.682;23.332;2023-03-03T01:15:28;95156.28;;;3.91;100.00
33155;BME280;19511;42.682;23.332;2023-03-03T01:17:58;95132.53;;;3.72;100.00
33155;BME280;19511;42.682;23.332;2023-03-03T01:20:24;95069.63;;;3.22;100.00
33155;BME280;19511;42.682;23.332;2023-03-03T01:22:49;95128.00;;;3.56;100.00
33155;BME280;19511;42.682;23.332;2023-03-03T01:25:15;95151.28;;;3.70;100.00
33155;BME280;19511;42.682;23.332;2023-03-03T01:27:40;95160.56;;;3.65;100.00
33155;BME280;19511;42.682;23.332;2023-03-03T01:30:07;95155.03;;;3.62;100.00
33155;BME280;19511;42.682;23.332;2023-03-03T01:32:32;95154.41;;;3.72;100.00
33155;BME280;19511;42.682;23.332;2023-03-03T01:34:58;95149.31;;;3.70;100.00
33155;BME280;19511;42.682;23.332;2023-03-03T01:37:23;95141.13;;;3.70;100.00
33155;BME280;19511;42.682;23.332;2023-03-03T01:39:53;95151.16;;;3.63;100.00
33155;BME280;19511;42.682;23.332;2023-03-03T01:42:20;95021.34;;;2.83;100.00
33155;BME280;19511;42.682;23.332;2023-03-03T01:44:46;95138.81;;;3.72;100.00
33155;BME280;19511;42.682;23.332;2023-03-03T01:47:15;95126.97;;;3.65;100.00
33155;BME280;19511;42.682;23.332;2023-03-03T01:52:26;95127.13;;;3.75;100.00
33155;BME280;19511;42.682;23.332;2023-03-03T01:54:56;95040.28;;;3.19;100.00
33155;BME280;19511;42.682;23.332;2023-03-03T01:57:30;95144.22;;;3.69;100.00
33155;BME280;19511;42.682;23.332;2023-03-03T01:59:58;95132.84;;;3.67;100.00
33155;BME280;19511;42.682;23.332;2023-03-03T02:02:26;95141.72;;;3.60;100.00
33155;BME280;19511;42.682;23.332;2023-03-03T02:04:52;95126.72;;;3.50;100.00
33155;BME280;19511;42.682;23.332;2023-03-03T02:07:19;95137.03;;;3.60;100.00
33155;BME280;19511;42.682;23.332;2023-03-03T02:10:15;95141.00;;;3.63;100.00
33155;BME280;19511;42.682;23.332;2023-03-03T02:12:41;95132.25;;;3.54;100.00
33155;BME280;19511;42.682;23.332;2023-03-03T02:18:02;95116.63;;;3.31;100.00
33155;BME280;19511;42.682;23.332;2023-03-03T02:28:30;95136.94;;;3.53;100.00
33155;BME280;19511;42.682;23.332;2023-03-03T02:30:57;95119.41;;;3.35;100.00
33155;BME280;19511;42.682;23.332;2023-03-03T02:33:24;95115.59;;;3.39;100.00
33155;BME280;19511;42.682;23.332;2023-03-03T02:35:50;95037.16;;;2.74;100.00
33155;BME280;19511;42.682;23.332;2023-03-03T02:38:36;95144.78;;;3.55;100.00
33155;BME280;19511;42.682;23.332;2023-03-03T02:43:53;95141.34;;;3.62;100.00
33155;BME280;19511;42.682;23.332;2023-03-03T02:46:20;95131.41;;;3.50;100.00
33155;BME280;19511;42.682;23.332;2023-03-03T02:48:46;95143.19;;;3.54;100.00
33155;BME280;19511;42.682;23.332;2023-03-03T02:51:11;95137.84;;;3.61;100.00
33155;BME280;19511;42.682;23.332;2023-03-03T02:53:37;95133.84;;;3.55;100.00
33155;BME280;19511;42.682;23.332;2023-03-03T02:56:02;95137.47;;;3.63;100.00
33155;BME280;19511;42.682;23.332;2023-03-03T02:58:29;95119.00;;;3.56;100.00
33155;BME280;19511;42.682;23.332;2023-03-03T03:00:55;95033.03;;;3.07;100.00
33155;BME280;19511;42.682;23.332;2023-03-03T03:03:21;95126.75;;;3.77;100.00
33155;BME280;19511;42.682;23.332;2023-03-03T03:05:46;94905.19;;;2.23;100.00
33155;BME280;19511;42.682;23.332;2023-03-03T03:08:11;95124.59;;;3.63;100.00
33155;BME280;19511;42.682;23.332;2023-03-03T03:10:37;95129.41;;;3.70;100.00
33155;BME280;19511;42.682;23.332;2023-03-03T03:13:02;94999.22;;;2.92;100.00
33155;BME280;19511;42.682;23.332;2023-03-03T03:15:28;95124.94;;;3.62;100.00
33155;BME280;19511;42.682;23.332;2023-03-03T03:17:53;95124.28;;;3.68;100.00
33155;BME280;19511;42.682;23.332;2023-03-03T03:20:19;95123.09;;;3.66;100.00
33155;BME280;19511;42.682;23.332;2023-03-03T03:22:44;95135.69;;;3.74;100.00
33155;BME280;19511;42.682;23.332;2023-03-03T03:25:09;95099.38;;;3.50;100.00
33155;BME280;19511;42.682;23.332;2023-03-03T03:27:35;95055.50;;;3.20;100.00
33155;BME280;19511;42.682;23.332;2023-03-03T03:30:00;95116.13;;;3.72;100.00
33155;BME280;19511;42.682;23.332;2023-03-03T03:32:26;95109.44;;;3.69;100.00
33155;BME280;19511;42.682;23.332;2023-03-03T03:34:51;95095.66;;;3.62;100.00
33155;BME280;19511;42.682;23.332;2023-03-03T03:37:17;95105.09;;;3.65;100.00
33155;BME280;19511;42.682;23.332;2023-03-03T03:39:42;94987.94;;;2.93;100.00
33155;BME280;19511;42.682;23.332;2023-03-03T03:42:08;95115.06;;;3.53;100.00
33155;BME280;19511;42.682;23.332;2023-03-03T03:44:33;95113.91;;;3.54;100.00
33155;BME280;19511;42.682;23.332;2023-03-03T03:46:58;95108.94;;;3.37;100.00
33155;BME280;19511;42.682;23.332;2023-03-03T03:49:24;95110.91;;;3.40;100.00
33155;BME280;19511;42.682;23.332;2023-03-03T03:51:49;95115.31;;;3.21;100.00
33155;BME280;19511;42.682;23.332;2023-03-03T03:54:15;95112.38;;;3.34;100.00
33155;BME280;19511;42.682;23.332;2023-03-03T03:56:40;94983.28;;;2.51;100.00
33155;BME280;19511;42.682;23.332;2023-03-03T03:59:06;95090.41;;;3.26;100.00
33155;BME280;19511;42.682;23.332;2023-03-03T04:01:32;95107.66;;;3.31;100.00
33155;BME280;19511;42.682;23.332;2023-03-03T04:03:57;95109.94;;;3.29;100.00
33155;BME280;19511;42.682;23.332;2023-03-03T04:06:23;95101.09;;;3.35;100.00
33155;BME280;19511;42.682;23.332;2023-03-03T04:08:48;95104.47;;;3.29;100.00
33155;BME280;19511;42.682;23.332;2023-03-03T04:11:14;95085.78;;;3.31;100.00
33155;BME280;19511;42.682;23.332;2023-03-03T04:13:39;95112.50;;;3.18;100.00
33155;BME280;19511;42.682;23.332;2023-03-03T04:16:05;95098.69;;;3.10;100.00
33155;BME280;19511;42.682;23.332;2023-03-03T04:18:31;95077.63;;;3.11;100.00
33155;BME280;19511;42.682;23.332;2023-03-03T04:20:56;95108.50;;;3.35;100.00
33155;BME280;19511;42.682;23.332;2023-03-03T04:23:22;95105.03;;;3.38;100.00
33155;BME280;19511;42.682;23.332;2023-03-03T04:25:48;95076.66;;;3.23;100.00
33155;BME280;19511;42.682;23.332;2023-03-03T04:28:17;94991.03;;;2.69;100.00
33155;BME280;19511;42.682;23.332;2023-03-03T04:30:43;95106.25;;;3.40;100.00
33155;BME280;19511;42.682;23.332;2023-03-03T04:33:08;95085.78;;;3.31;100.00
33155;BME280;19511;42.682;23.332;2023-03-03T04:35:34;95099.81;;;3.52;100.00
33155;BME280;19511;42.682;23.332;2023-03-03T04:37:59;94991.00;;;2.88;100.00
33155;BME280;19511;42.682;23.332;2023-03-03T04:40:25;95102.91;;;3.51;100.00
33155;BME280;19511;42.682;23.332;2023-03-03T04:42:53;95101.56;;;3.41;100.00
33155;BME280;19511;42.682;23.332;2023-03-03T04:45:18;95080.19;;;3.23;100.00
33155;BME280;19511;42.682;23.332;2023-03-03T04:47:44;95106.50;;;3.32;100.00
33155;BME280;19511;42.682;23.332;2023-03-03T04:50:10;95013.31;;;2.71;100.00
33155;BME280;19511;42.682;23.332;2023-03-03T04:52:36;95087.53;;;3.19;100.00
33155;BME280;19511;42.682;23.332;2023-03-03T04:55:01;95083.66;;;3.20;100.00
33155;BME280;19511;42.682;23.332;2023-03-03T04:57:26;95084.81;;;3.19;100.00
33155;BME280;19511;42.682;23.332;2023-03-03T04:59:52;95090.03;;;3.28;100.00
33155;BME280;19511;42.682;23.332;2023-03-03T05:02:18;95103.16;;;3.42;100.00
33155;BME280;19511;42.682;23.332;2023-03-03T05:04:44;95084.19;;;3.30;100.00
33155;BME280;19511;42.682;23.332;2023-03-03T05:07:09;94986.94;;;2.59;100.00
33155;BME280;19511;42.682;23.332;2023-03-03T05:09:35;95006.03;;;2.78;100.00
33155;BME280;19511;42.682;23.332;2023-03-03T05:12:00;95110.59;;;3.45;100.00
33155;BME280;19511;42.682;23.332;2023-03-03T05:14:26;95105.22;;;3.49;100.00
33155;BME280;19511;42.682;23.332;2023-03-03T05:16:52;95107.47;;;3.43;100.00
33155;BME280;19511;42.682;23.332;2023-03-03T05:19:17;95091.94;;;3.27;100.00
33155;BME280;19511;42.682;23.332;2023-03-03T05:21:43;95081.31;;;3.22;100.00
33155;BME280;19511;42.682;23.332;2023-03-03T05:24:09;95102.19;;;3.31;100.00
33155;BME280;19511;42.682;23.332;2023-03-03T05:26:35;95090.09;;;3.32;100.00
33155;BME280;19511;42.682;23.332;2023-03-03T05:29:01;95109.22;;;3.32;100.00
33155;BME280;19511;42.682;23.332;2023-03-03T05:31:26;95109.94;;;3.29;100.00
33155;BME280;19511;42.682;23.332;2023-03-03T05:33:53;95120.34;;;3.42;100.00
33155;BME280;19511;42.682;23.332;2023-03-03T05:36:18;95001.53;;;2.67;100.00
33155;BME280;19511;42.682;23.332;2023-03-03T05:38:44;95117.84;;;3.34;100.00
33155;BME280;19511;42.682;23.332;2023-03-03T05:41:09;94985.44;;;2.61;100.00
33155;BME280;19511;42.682;23.332;2023-03-03T05:43:34;95119.31;;;3.51;100.00
33155;BME280;19511;42.682;23.332;2023-03-03T05:46:00;95097.69;;;3.42;100.00
33155;BME280;19511;42.682;23.332;2023-03-03T05:48:26;95005.22;;;2.78;100.00
33155;BME280;19511;42.682;23.332;2023-03-03T05:50:52;95127.03;;;3.45;100.00
33155;BME280;19511;42.682;23.332;2023-03-03T05:53:18;95010.44;;;2.64;100.00
33155;BME280;19511;42.682;23.332;2023-03-03T05:55:43;95103.03;;;3.35;100.00
33155;BME280;19511;42.682;23.332;2023-03-03T05:58:08;95112.50;;;3.41;100.00
33155;BME280;19511;42.682;23.332;2023-03-03T06:00:34;95031.97;;;2.88;100.00
33155;BME280;19511;42.682;23.332;2023-03-03T06:03:00;95121.38;;;3.57;100.00
33155;BME280;19511;42.682;23.332;2023-03-03T06:05:25;95127.44;;;3.70;100.00
33155;BME280;19511;42.682;23.332;2023-03-03T06:07:51;95108.97;;;3.64;100.00
33155;BME280;19511;42.682;23.332;2023-03-03T06:10:16;95125.38;;;3.64;100.00
33155;BME280;19511;42.682;23.332;2023-03-03T06:12:42;95130.84;;;3.64;100.00
33155;BME280;19511;42.682;23.332;2023-03-03T06:15:08;95123.44;;;3.64;100.00
33155;BME280;19511;42.682;23.332;2023-03-03T06:17:34;95125.59;;;3.78;100.00
33155;BME280;19511;42.682;23.332;2023-03-03T06:20:00;95128.47;;;3.85;100.00
33155;BME280;19511;42.682;23.332;2023-03-03T06:22:26;95029.03;;;3.01;100.00
33155;BME280;19511;42.682;23.332;2023-03-03T06:24:51;95014.34;;;3.09;100.00
33155;BME280;19511;42.682;23.332;2023-03-03T06:27:17;95135.88;;;3.85;100.00
33155;BME280;19511;42.682;23.332;2023-03-03T06:29:43;95015.50;;;3.08;100.00
33155;BME280;19511;42.682;23.332;2023-03-03T06:32:09;95118.25;;;3.59;100.00
33155;BME280;19511;42.682;23.332;2023-03-03T06:34:34;95023.41;;;2.90;100.00
33155;BME280;19511;42.682;23.332;2023-03-03T06:37:00;95128.72;;;3.76;100.00
33155;BME280;19511;42.682;23.332;2023-03-03T06:39:25;95131.31;;;3.69;100.00
33155;BME280;19511;42.682;23.332;2023-03-03T06:41:51;95022.00;;;3.00;100.00
33155;BME280;19511;42.682;23.332;2023-03-03T06:44:16;95141.25;;;3.78;100.00
33155;BME280;19511;42.682;23.332;2023-03-03T06:46:42;95142.50;;;3.84;100.00
33155;BME280;19511;42.682;23.332;2023-03-03T06:49:07;95123.09;;;3.66;100.00
33155;BME280;19511;42.682;23.332;2023-03-03T06:51:35;95148.06;;;3.91;100.00
33155;BME280;19511;42.682;23.332;2023-03-03T06:54:12;95065.25;;;3.40;100.00
33155;BME280;19511;42.682;23.332;2023-03-03T06:56:38;95147.34;;;3.94;100.00
33155;BME280;19511;42.682;23.332;2023-03-03T06:59:18;95113.06;;;3.77;100.00
33155;BME280;19511;42.682;23.332;2023-03-03T07:01:47;95142.34;;;4.00;100.00
33155;BME280;19511;42.682;23.332;2023-03-03T07:04:27;95121.22;;;3.97;100.00
33155;BME280;19511;42.682;23.332;2023-03-03T07:06:54;95140.31;;;4.20;100.00
33155;BME280;19511;42.682;23.332;2023-03-03T07:09:25;95153.00;;;4.32;100.00
33155;BME280;19511;42.682;23.332;2023-03-03T07:12:00;95030.44;;;3.64;100.00
33155;BME280;19511;42.682;23.332;2023-03-03T07:14:26;95132.66;;;4.33;100.00
33155;BME280;19511;42.682;23.332;2023-03-03T07:16:59;95147.72;;;4.46;100.00
33155;BME280;19511;42.682;23.332;2023-03-03T07:19:34;95121.13;;;4.20;100.00
33155;BME280;19511;42.682;23.332;2023-03-03T07:22:18;95138.84;;;4.26;100.00
33155;BME280;19511;42.682;23.332;2023-03-03T07:24:45;95149.78;;;4.26;100.00
33155;BME280;19511;42.682;23.332;2023-03-03T07:27:27;95151.94;;;4.40;100.00
33155;BME280;19511;42.682;23.332;2023-03-03T07:29:54;95155.28;;;4.56;100.00
33155;BME280;19511;42.682;23.332;2023-03-03T07:32:39;95134.75;;;4.43;100.00
33155;BME280;19511;42.682;23.332;2023-03-03T07:37:54;95135.22;;;4.49;100.00
33155;BME280;19511;42.682;23.332;2023-03-03T07:40:34;95125.31;;;4.40;100.00
33155;BME280;19511;42.682;23.332;2023-03-03T07:48:37;95142.66;;;4.48;100.00
33155;BME280;19511;42.682;23.332;2023-03-03T07:51:12;95100.97;;;4.32;100.00
33155;BME280;19511;42.682;23.332;2023-03-03T07:53:40;95132.00;;;4.43;100.00
33155;BME280;19511;42.682;23.332;2023-03-03T07:56:29;95105.69;;;4.35;100.00
33155;BME280;19511;42.682;23.332;2023-03-03T07:58:55;95028.59;;;4.02;100.00
33155;BME280;19511;42.682;23.332;2023-03-03T08:01:43;95122.84;;;4.58;100.00
33155;BME280;19511;42.682;23.332;2023-03-03T08:07:13;95103.13;;;4.49;100.00
33155;BME280;19511;42.682;23.332;2023-03-03T08:09:58;95122.97;;;4.69;100.00
33155;BME280;19511;42.682;23.332;2023-03-03T08:12:34;95075.13;;;4.29;100.00
33155;BME280;19511;42.682;23.332;2023-03-03T08:15:23;95123.63;;;4.59;100.00
33155;BME280;19511;42.682;23.332;2023-03-03T08:17:51;95130.41;;;4.69;100.00
33155;BME280;19511;42.682;23.332;2023-03-03T08:20:41;95129.19;;;4.66;100.00
33155;BME280;19511;42.682;23.332;2023-03-03T08:23:09;95105.75;;;4.38;100.00
33155;BME280;19511;42.682;23.332;2023-03-03T08:25:34;95121.34;;;4.65;100.00
33155;BME280;19511;42.682;23.332;2023-03-03T08:28:00;95125.25;;;4.64;100.00
33155;BME280;19511;42.682;23.332;2023-03-03T08:30:25;95111.78;;;4.51;100.00
33155;BME280;19511;42.682;23.332;2023-03-03T08:32:50;95110.41;;;4.65;100.00
33155;BME280;19511;42.682;23.332;2023-03-03T08:35:16;95074.88;;;4.41;100.00
33155;BME280;19511;42.682;23.332;2023-03-03T08:37:41;95102.63;;;4.70;100.00
33155;BME280;19511;42.682;23.332;2023-03-03T08:40:07;95005.75;;;4.18;100.00
33155;BME280;19511;42.682;23.332;2023-03-03T08:42:33;95108.31;;;4.88;100.00
33155;BME280;19511;42.682;23.332;2023-03-03T08:44:58;95109.78;;;4.79;100.00
33155;BME280;19511;42.682;23.332;2023-03-03T08:47:24;94983.53;;;3.92;100.00
33155;BME280;19511;42.682;23.332;2023-03-03T08:49:49;95105.78;;;4.72;100.00
33155;BME280;19511;42.682;23.332;2023-03-03T08:52:15;95124.75;;;4.88;100.00
33155;BME280;19511;42.682;23.332;2023-03-03T08:54:40;95124.25;;;4.79;100.00
33155;BME280;19511;42.682;23.332;2023-03-03T08:57:06;95118.22;;;4.97;100.00
33155;BME280;19511;42.682;23.332;2023-03-03T08:59:32;95109.25;;;5.03;100.00
33155;BME280;19511;42.682;23.332;2023-03-03T09:02:02;95026.34;;;4.38;100.00
33155;BME280;19511;42.682;23.332;2023-03-03T09:04:27;95117.50;;;5.03;100.00
33155;BME280;19511;42.682;23.332;2023-03-03T09:06:53;95034.34;;;4.54;100.00
33155;BME280;19511;42.682;23.332;2023-03-03T09:09:18;95100.56;;;4.94;100.00
33155;BME280;19511;42.682;23.332;2023-03-03T09:11:43;95115.84;;;4.95;100.00
33155;BME280;19511;42.682;23.332;2023-03-03T09:14:11;95086.94;;;5.05;100.00
33155;BME280;19511;42.682;23.332;2023-03-03T09:16:40;95017.91;;;4.54;100.00
33155;BME280;19511;42.682;23.332;2023-03-03T09:19:19;95011.31;;;4.59;100.00
33155;BME280;19511;42.682;23.332;2023-03-03T09:21:45;95003.13;;;4.63;100.00
33155;BME280;19511;42.682;23.332;2023-03-03T09:26:50;95109.44;;;5.21;100.00
33155;BME280;19511;42.682;23.332;2023-03-03T09:29:28;95107.09;;;5.20;100.00
33155;BME280;19511;42.682;23.332;2023-03-03T09:31:58;95110.97;;;5.19;100.00
33155;BME280;19511;42.682;23.332;2023-03-03T09:34:40;95112.03;;;5.07;100.00
33155;BME280;19511;42.682;23.332;2023-03-03T09:37:22;95113.34;;;5.20;100.00
33155;BME280;19511;42.682;23.332;2023-03-03T09:39:51;95107.19;;;5.31;100.00
33155;BME280;19511;42.682;23.332;2023-03-03T09:56:32;95097.25;;;5.56;100.00
33155;BME280;19511;42.682;23.332;2023-03-03T09:59:14;95114.31;;;5.84;100.00
33155;BME280;19511;42.682;23.332;2023-03-03T10:06:45;95109.31;;;5.48;100.00
33155;BME280;19511;42.682;23.332;2023-03-03T10:17:21;95100.25;;;5.44;100.00
33155;BME280;19511;42.682;23.332;2023-03-03T10:25:20;95091.00;;;5.63;100.00
33155;BME280;19511;42.682;23.332;2023-03-03T10:30:31;95086.09;;;5.87;100.00
33155;BME280;19511;42.682;23.332;2023-03-03T10:47:26;95010.97;;;5.50;100.00
33155;BME280;19511;42.682;23.332;2023-03-03T10:55:11;95067.25;;;5.82;100.00
33155;BME280;19511;42.682;23.332;2023-03-03T11:08:46;95054.25;;;5.75;100.00
33155;BME280;19511;42.682;23.332;2023-03-03T11:22:33;95046.38;;;5.70;100.00
33155;BME280;19511;42.682;23.332;2023-03-03T11:35:43;95037.91;;;5.93;100.00
33155;BME280;19511;42.682;23.332;2023-03-03T11:38:38;95032.41;;;5.89;100.00
33155;BME280;19511;42.682;23.332;2023-03-03T11:41:18;95029.72;;;5.97;100.00
33155;BME280;19511;42.682;23.332;2023-03-03T11:43:49;94944.97;;;5.29;100.00
33155;BME280;19511;42.682;23.332;2023-03-03T11:54:33;95021.97;;;6.10;100.00
33155;BME280;19511;42.682;23.332;2023-03-03T11:57:21;94966.41;;;5.68;100.00
33155;BME280;19511;42.682;23.332;2023-03-03T11:59:51;95029.41;;;6.09;100.00
33155;BME280;19511;42.682;23.332;2023-03-03T12:05:26;95021.19;;;6.16;100.00
33155;BME280;19511;42.682;23.332;2023-03-03T12:19:11;95026.28;;;6.14;100.00
33155;BME280;19511;42.682;23.332;2023-03-03T12:21:59;95017.59;;;6.01;100.00
33155;BME280;19511;42.682;23.332;2023-03-03T12:41:20;94930.91;;;5.34;100.00
33155;BME280;19511;42.682;23.332;2023-03-03T12:49:15;95040.69;;;5.97;100.00
33155;BME280;19511;42.682;23.332;2023-03-03T13:05:26;95038.59;;;5.76;100.00
33155;BME280;19511;42.682;23.332;2023-03-03T13:14:15;95029.88;;;5.63;100.00
33155;BME280;19511;42.682;23.332;2023-03-03T13:16:46;95033.81;;;5.65;100.00
33155;BME280;19511;42.682;23.332;2023-03-03T13:19:19;95020.47;;;5.64;100.00
33155;BME280;19511;42.682;23.332;2023-03-03T13:22:04;95036.06;;;5.56;100.00
33155;BME280;19511;42.682;23.332;2023-03-03T13:27:41;95031.44;;;5.64;100.00
33155;BME280;19511;42.682;23.332;2023-03-03T13:30:16;94834.03;;;4.60;100.00
33155;BME280;19511;42.682;23.332;2023-03-03T13:32:53;94894.28;;;5.04;100.00
33155;BME280;19511;42.682;23.332;2023-03-03T13:38:11;95020.66;;;5.96;100.00
33155;BME280;19511;42.682;23.332;2023-03-03T13:40:50;95019.94;;;6.03;100.00
33155;BME280;19511;42.682;23.332;2023-03-03T13:43:31;94929.31;;;5.33;100.00
33155;BME280;19511;42.682;23.332;2023-03-03T13:46:48;95020.78;;;6.07;100.00
33155;BME280;19511;42.682;23.332;2023-03-03T13:49:31;95016.41;;;5.99;100.00
33155;BME280;19511;42.682;23.332;2023-03-03T13:52:00;95023.81;;;5.95;100.00
33155;BME280;19511;42.682;23.332;2023-03-03T14:06:07;95019.78;;;5.81;100.00
33155;BME280;19511;42.682;23.332;2023-03-03T14:08:43;95032.28;;;5.75;100.00
33155;BME280;19511;42.682;23.332;2023-03-03T14:16:40;95016.72;;;5.94;100.00
33155;BME280;19511;42.682;23.332;2023-03-03T14:25:01;95004.09;;;5.78;100.00
33155;BME280;19511;42.682;23.332;2023-03-03T14:38:12;94992.44;;;5.96;100.00
33155;BME280;19511;42.682;23.332;2023-03-03T14:40:40;94990.53;;;6.00;100.00
33155;BME280;19511;42.682;23.332;2023-03-03T14:43:33;95005.03;;;6.04;100.00
33155;BME280;19511;42.682;23.332;2023-03-03T14:48:56;94995.53;;;5.91;100.00
33155;BME280;19511;42.682;23.332;2023-03-03T14:51:24;95005.09;;;6.11;100.00
33155;BME280;19511;42.682;23.332;2023-03-03T14:53:51;95008.22;;;6.10;100.00
33155;BME280;19511;42.682;23.332;2023-03-03T14:56:35;95009.44;;;6.19;100.00
33155;BME280;19511;42.682;23.332;2023-03-03T14:59:17;94996.47;;;6.13;100.00
33155;BME280;19511;42.682;23.332;2023-03-03T15:01:44;95000.00;;;6.17;100.00
33155;BME280;19511;42.682;23.332;2023-03-03T15:06:43;94922.16;;;5.80;100.00
33155;BME280;19511;42.682;23.332;2023-03-03T15:12:21;94992.97;;;6.19;100.00
33155;BME280;19511;42.682;23.332;2023-03-03T15:15:28;94988.56;;;6.00;100.00
33155;BME280;19511;42.682;23.332;2023-03-03T15:18:00;94885.19;;;5.52;100.00
33155;BME280;19511;42.682;23.332;2023-03-03T15:26:34;94983.88;;;6.01;100.00
33155;BME280;19511;42.682;23.332;2023-03-03T15:29:16;94992.91;;;6.05;100.00
33155;BME280;19511;42.682;23.332;2023-03-03T15:32:03;94998.81;;;6.14;100.00
33155;BME280;19511;42.682;23.332;2023-03-03T15:40:24;95006.91;;;5.93;100.00
33155;BME280;19511;42.682;23.332;2023-03-03T15:43:12;95004.94;;;5.89;100.00
33155;BME280;19511;42.682;23.332;2023-03-03T15:46:05;94999.56;;;6.04;100.00
33155;BME280;19511;42.682;23.332;2023-03-03T16:03:48;95007.44;;;6.09;100.00
33155;BME280;19511;42.682;23.332;2023-03-03T16:09:50;95005.34;;;5.92;100.00
33155;BME280;19511;42.682;23.332;2023-03-03T16:37:30;95042.59;;;5.93;100.00
33155;BME280;19511;42.682;23.332;2023-03-03T16:51:47;95036.97;;;5.71;100.00
33155;BME280;19511;42.682;23.332;2023-03-03T17:05:05;95065.94;;;5.65;100.00
33155;BME280;19511;42.682;23.332;2023-03-03T17:07:43;95076.63;;;5.77;100.00
33155;BME280;19511;42.682;23.332;2023-03-03T17:16:01;95083.41;;;5.94;100.00
33155;BME280;19511;42.682;23.332;2023-03-03T17:27:42;95087.22;;;5.79;100.00
33155;BME280;19511;42.682;23.332;2023-03-03T17:35:36;95088.41;;;5.78;100.00
33155;BME280;19511;42.682;23.332;2023-03-03T17:40:52;95109.13;;;5.75;100.00
33155;BME280;19511;42.682;23.332;2023-03-03T17:43:33;95100.59;;;5.87;100.00
33155;BME280;19511;42.682;23.332;2023-03-03T18:00:38;95134.09;;;6.04;100.00
33155;BME280;19511;42.682;23.332;2023-03-03T18:03:24;95122.75;;;6.09;100.00
33155;BME280;19511;42.682;23.332;2023-03-03T18:06:09;95125.53;;;6.13;100.00
33155;BME280;19511;42.682;23.332;2023-03-03T18:09:20;95121.94;;;6.05;100.00
33155;BME280;19511;42.682;23.332;2023-03-03T18:23:37;95129.88;;;6.17;100.00
33155;BME280;19511;42.682;23.332;2023-03-03T18:26:37;95134.56;;;6.13;100.00
33155;BME280;19511;42.682;23.332;2023-03-03T18:39:39;95132.97;;;6.09;100.00
33155;BME280;19511;42.682;23.332;2023-03-03T18:44:45;95133.31;;;6.03;100.00
33155;BME280;19511;42.682;23.332;2023-03-03T18:47:14;95123.50;;;6.02;100.00
33155;BME280;19511;42.682;23.332;2023-03-03T18:49:50;95168.38;;;6.21;100.00
33155;BME280;19511;42.682;23.332;2023-03-03T18:52:26;95150.25;;;6.13;100.00
33155;BME280;19511;42.682;23.332;2023-03-03T19:00:59;95160.84;;;6.14;100.00
33155;BME280;19511;42.682;23.332;2023-03-03T19:06:03;95167.00;;;6.00;100.00
33155;BME280;19511;42.682;23.332;2023-03-03T19:08:54;95174.28;;;6.27;100.00
33155;BME280;19511;42.682;23.332;2023-03-03T19:11:49;95185.63;;;6.21;100.00
33155;BME280;19511;42.682;23.332;2023-03-03T19:17:01;95065.91;;;5.58;100.00
33155;BME280;19511;42.682;23.332;2023-03-03T19:20:15;95177.06;;;6.30;100.00
33155;BME280;19511;42.682;23.332;2023-03-03T19:23:03;95184.91;;;6.32;100.00
33155;BME280;19511;42.682;23.332;2023-03-03T19:25:34;95183.66;;;6.18;100.00
33155;BME280;19511;42.682;23.332;2023-03-03T19:33:39;95182.94;;;6.29;100.00
33155;BME280;19511;42.682;23.332;2023-03-03T19:36:40;95199.00;;;6.27;100.00
33155;BME280;19511;42.682;23.332;2023-03-03T19:44:28;95182.94;;;6.29;100.00
33155;BME280;19511;42.682;23.332;2023-03-03T19:50:06;95172.81;;;6.40;100.00
33155;BME280;19511;42.682;23.332;2023-03-03T20:01:00;95149.50;;;6.19;100.00